createdAt,value
2022-08-29T00:05:42.896Z,3569
2022-08-29T00:15:45.253Z,3569
2022-08-29T00:25:42.891Z,3569
2022-08-29T00:35:42.837Z,3569
2022-08-29T00:45:42.907Z,3569
2022-08-29T00:55:42.834Z,3569
2022-08-29T01:05:42.780Z,3569
2022-08-29T01:15:42.750Z,3569
2022-08-29T01:25:42.762Z,3569
2022-08-29T01:35:42.725Z,3569
2022-08-29T01:45:42.825Z,3566
2022-08-29T01:55:42.732Z,3569
2022-08-29T02:05:42.652Z,3563
2022-08-29T02:15:42.638Z,3566
2022-08-29T02:25:42.644Z,3563
2022-08-29T02:35:42.963Z,3563
2022-08-29T02:45:42.606Z,3563
2022-08-29T02:55:42.552Z,3563
2022-08-29T03:05:42.526Z,3563
2022-08-29T03:15:42.549Z,3563
2022-08-29T03:25:42.490Z,3563
2022-08-29T03:35:42.467Z,3563
2022-08-29T03:45:42.478Z,3563
2022-08-29T03:55:42.431Z,3563
2022-08-29T04:05:42.413Z,3563
2022-08-29T04:15:42.499Z,3561
2022-08-29T04:25:42.369Z,3563
2022-08-29T04:35:42.356Z,3563
2022-08-29T04:45:42.366Z,3558
2022-08-29T04:55:42.316Z,3561
2022-08-29T05:05:42.287Z,3558
2022-08-29T05:15:42.447Z,3561
2022-08-29T05:25:42.252Z,3561
2022-08-29T05:35:42.231Z,3561
2022-08-29T05:45:42.249Z,3561
2022-08-29T05:55:42.183Z,3561
2022-08-29T06:05:42.181Z,3563
2022-08-29T06:15:42.191Z,3563
2022-08-29T06:25:42.174Z,3563
2022-08-29T06:35:42.109Z,3563
2022-08-29T06:45:42.127Z,3563
2022-08-29T06:55:42.064Z,3563
2022-08-29T07:05:42.048Z,3563
2022-08-29T07:15:42.062Z,3563
2022-08-29T07:25:42.046Z,3566
2022-08-29T07:35:41.983Z,3566
2022-08-29T07:45:41.983Z,3569
2022-08-29T07:55:41.971Z,3566
2022-08-29T08:05:41.925Z,3569
2022-08-29T08:15:41.902Z,3569
2022-08-29T08:25:41.900Z,3569
2022-08-29T08:35:42.252Z,3569
2022-08-29T08:45:41.916Z,3571
2022-08-29T08:55:41.862Z,3571
2022-08-29T09:05:44.110Z,3571
2022-08-29T09:15:41.768Z,3574
2022-08-29T09:25:41.773Z,3571
2022-08-29T09:35:41.722Z,3576
2022-08-29T09:45:41.755Z,3579
2022-08-29T09:55:41.750Z,3579
2022-08-29T10:05:41.659Z,3581
2022-08-29T10:15:50.340Z,3584
2022-08-29T10:25:41.644Z,3587
2022-08-29T10:35:41.594Z,3589
2022-08-29T10:45:41.634Z,3589
2022-08-29T10:55:41.588Z,3592
2022-08-29T11:05:41.537Z,3589
2022-08-29T11:15:41.534Z,3594
2022-08-29T11:25:41.534Z,3594
2022-08-29T11:35:41.481Z,3594
2022-08-29T11:45:41.492Z,3594
2022-08-29T11:55:41.482Z,3594
2022-08-29T12:05:41.424Z,3594
2022-08-29T12:15:41.443Z,3594
2022-08-29T12:25:41.425Z,3594
2022-08-29T12:35:41.358Z,3597
2022-08-29T12:45:41.390Z,3594
2022-08-29T12:55:41.357Z,3594
2022-08-29T13:05:41.317Z,3597
2022-08-29T13:15:41.357Z,3597
2022-08-29T13:25:41.305Z,3600
2022-08-29T13:35:41.253Z,3597
2022-08-29T13:45:41.270Z,3600
2022-08-29T13:55:41.250Z,3600
2022-08-29T14:05:41.208Z,3600
2022-08-29T14:15:41.316Z,3600
2022-08-29T14:25:41.221Z,3600
2022-08-29T14:35:43.221Z,3600
2022-08-29T14:45:41.171Z,3600
2022-08-29T14:55:41.146Z,3600
2022-08-29T15:05:41.100Z,3600
2022-08-29T15:15:41.145Z,3600
2022-08-29T15:25:45.136Z,3600
2022-08-29T15:35:41.076Z,3600
2022-08-29T15:45:41.073Z,3600
2022-08-29T15:55:44.304Z,3600
2022-08-29T16:05:40.999Z,3600
2022-08-29T16:15:41.187Z,3600
2022-08-29T16:25:43.021Z,3600
2022-08-29T16:35:40.941Z,3600
2022-08-29T16:45:41.120Z,3600
2022-08-29T16:55:40.924Z,3600
2022-08-29T17:05:40.868Z,3600
2022-08-29T17:15:40.893Z,3600
2022-08-29T17:25:40.865Z,3600
2022-08-29T17:35:40.813Z,3597
2022-08-29T17:45:40.854Z,3597
2022-08-29T17:55:40.768Z,3594
2022-08-29T18:05:40.744Z,3594
2022-08-29T18:15:40.756Z,3594
2022-08-29T18:25:40.696Z,3592
2022-08-29T18:35:40.684Z,3594
2022-08-29T18:45:40.751Z,3592
2022-08-29T18:55:40.641Z,3589
2022-08-29T19:05:40.639Z,3589
2022-08-29T19:15:41.561Z,3589
2022-08-29T19:25:40.576Z,3589
2022-08-29T19:35:40.547Z,3589
2022-08-29T19:45:40.582Z,3589
2022-08-29T19:55:40.499Z,3587
2022-08-29T20:05:40.470Z,3587
2022-08-29T20:15:40.485Z,3584
2022-08-29T20:25:40.441Z,3584
2022-08-29T20:35:40.440Z,3584
2022-08-29T20:45:40.422Z,3584
2022-08-29T20:55:40.365Z,3584
2022-08-29T21:05:40.348Z,3581
2022-08-29T21:15:40.333Z,3581
2022-08-29T21:25:40.346Z,3584
2022-08-29T21:45:40.260Z,3579
2022-08-29T21:55:40.279Z,3581
2022-08-29T22:05:43.640Z,3579
2022-08-29T22:15:40.257Z,3581
2022-08-29T22:25:40.179Z,3581
2022-08-29T22:35:40.148Z,3579
2022-08-29T22:45:40.121Z,3579
2022-08-29T22:55:40.158Z,3579
2022-08-29T23:05:40.097Z,3576
2022-08-29T23:15:40.147Z,3579
2022-08-29T23:25:40.037Z,3576
2022-08-29T23:35:40.050Z,3579
2022-08-29T23:45:40.007Z,3576
2022-08-29T23:55:40.014Z,3576
